createdAt,value
2022-10-19T00:04:48.692Z,12.78
2022-10-19T00:09:51.373Z,12.66
2022-10-19T00:14:55.333Z,12.57
2022-10-19T00:19:58.288Z,12.45
2022-10-19T00:25:00.906Z,12.46
2022-10-19T00:30:05.967Z,12.36
2022-10-19T00:35:09.103Z,12.31
2022-10-19T00:40:12.605Z,12.28
2022-10-19T00:45:18.731Z,12.26
2022-10-19T00:50:21.523Z,12.25
2022-10-19T00:55:24.671Z,12.20
2022-10-19T01:00:28.639Z,12.15
2022-10-19T01:05:32.103Z,12.13
2022-10-19T01:10:55.794Z,12.02
2022-10-19T01:16:15.657Z,12.00
2022-10-19T01:21:22.624Z,12.04
2022-10-19T01:26:37.730Z,12.00
2022-10-19T01:31:46.693Z,11.97
2022-10-19T01:36:56.036Z,12.01
2022-10-19T01:42:03.125Z,11.98
2022-10-19T01:47:09.083Z,11.88
2022-10-19T01:52:14.373Z,11.84
2022-10-19T01:57:21.562Z,11.94
2022-10-19T02:02:26.602Z,11.95
2022-10-19T02:07:29.423Z,11.87
2022-10-19T02:12:32.986Z,11.88
2022-10-19T02:17:41.604Z,11.84
2022-10-19T02:22:44.683Z,11.90
2022-10-19T02:27:47.286Z,11.93
2022-10-19T02:32:51.711Z,11.92
2022-10-19T02:37:54.509Z,11.91
2022-10-19T02:43:00.136Z,11.93
2022-10-19T02:48:07.288Z,11.90
2022-10-19T02:53:10.090Z,11.84
2022-10-19T02:58:12.701Z,11.78
2022-10-19T03:03:16.628Z,11.70
2022-10-19T03:08:19.254Z,11.65
2022-10-19T03:13:21.828Z,11.61
2022-10-19T03:18:25.788Z,11.63
2022-10-19T03:23:28.338Z,11.66
2022-10-19T03:28:31.371Z,11.69
2022-10-19T03:33:35.348Z,11.60
2022-10-19T03:38:37.953Z,11.63
2022-10-19T03:43:41.171Z,11.70
2022-10-19T03:48:45.164Z,11.74
2022-10-19T03:53:48.162Z,11.77
2022-10-19T03:58:51.922Z,11.78
2022-10-19T04:03:56.075Z,11.79
2022-10-19T04:08:59.254Z,11.79
2022-10-19T04:14:02.883Z,11.76
2022-10-19T04:19:07.224Z,11.73
2022-10-19T04:24:12.834Z,11.65
2022-10-19T04:29:16.018Z,11.58
2022-10-19T04:34:20.511Z,11.57
2022-10-19T04:39:23.276Z,11.55
2022-10-19T04:44:26.028Z,11.51
2022-10-19T04:49:30.201Z,11.52
2022-10-19T04:54:32.800Z,11.52
2022-10-19T04:59:35.580Z,11.34
2022-10-19T05:04:41.828Z,11.32
2022-10-19T05:09:47.668Z,11.33
2022-10-19T05:14:50.273Z,11.35
2022-10-19T05:19:54.453Z,11.39
2022-10-19T05:24:58.190Z,11.41
2022-10-19T05:30:01.114Z,11.41
2022-10-19T05:35:05.725Z,11.41
2022-10-19T05:40:09.817Z,11.37
2022-10-19T05:45:12.426Z,11.38
2022-10-19T05:50:16.567Z,11.32
2022-10-19T05:55:19.179Z,11.34
2022-10-19T06:00:21.996Z,11.27
2022-10-19T06:05:26.118Z,11.20
2022-10-19T06:10:28.884Z,11.24
2022-10-19T06:15:35.734Z,11.28
2022-10-19T06:20:41.706Z,11.28
2022-10-19T06:25:44.683Z,11.36
2022-10-19T06:30:47.508Z,11.30
2022-10-19T06:35:51.564Z,11.26
2022-10-19T06:40:54.242Z,11.28
2022-10-19T06:45:57.101Z,11.34
2022-10-19T06:51:02.534Z,11.30
2022-10-19T06:56:07.313Z,11.35
2022-10-19T07:01:11.853Z,11.43
2022-10-19T07:06:16.214Z,11.39
2022-10-19T07:11:22.277Z,11.48
2022-10-19T07:16:24.886Z,11.49
2022-10-19T07:21:28.913Z,11.51
2022-10-19T07:26:33.648Z,11.55
2022-10-19T07:31:36.311Z,11.64
2022-10-19T07:36:44.838Z,11.70
2022-10-19T07:41:47.696Z,11.73
2022-10-19T07:46:50.341Z,11.67
2022-10-19T07:51:56.162Z,11.71
2022-10-19T07:56:59.113Z,11.75
2022-10-19T08:02:04.738Z,11.75
2022-10-19T08:07:09.945Z,11.77
2022-10-19T08:12:15.311Z,11.86
2022-10-19T08:17:18.332Z,11.86
2022-10-19T08:22:22.442Z,11.89
2022-10-19T08:27:25.279Z,11.92
2022-10-19T08:32:27.931Z,11.93
2022-10-19T08:37:44.222Z,12.01
2022-10-19T08:42:54.136Z,12.03
2022-10-19T08:48:01.197Z,12.03
2022-10-19T08:53:11.393Z,12.09
2022-10-19T08:58:23.998Z,12.13
2022-10-19T09:03:54.513Z,12.13
2022-10-19T09:08:58.611Z,12.18
2022-10-19T09:14:06.174Z,12.24
2022-10-19T09:19:14.652Z,12.29
2022-10-19T09:24:28.188Z,12.36
2022-10-19T09:29:36.782Z,12.40
2022-10-19T09:34:42.688Z,12.53
2022-10-19T09:39:52.398Z,12.58
2022-10-19T09:44:59.658Z,12.70
2022-10-19T09:50:16.648Z,12.68
2022-10-19T09:55:27.027Z,12.74
2022-10-19T10:00:37.393Z,12.85
2022-10-19T10:05:41.207Z,12.94
2022-10-19T10:11:05.648Z,12.97
2022-10-19T10:16:09.854Z,13.11
2022-10-19T10:21:15.400Z,13.13
2022-10-19T10:26:20.648Z,13.01
2022-10-19T10:31:25.637Z,12.82
2022-10-19T10:36:29.619Z,12.75
2022-10-19T10:41:38.506Z,12.79
2022-10-19T10:46:45.811Z,12.82
2022-10-19T10:51:53.090Z,12.88
2022-10-19T10:57:06.814Z,12.94
2022-10-19T11:02:18.649Z,13.01
2022-10-19T11:07:24.142Z,13.24
2022-10-19T11:12:35.345Z,13.19
2022-10-19T11:17:38.953Z,13.06
2022-10-19T11:22:45.961Z,12.97
2022-10-19T11:27:54.395Z,12.92
2022-10-19T11:33:01.383Z,12.92
2022-10-19T11:38:20.140Z,12.91
2022-10-19T11:43:32.689Z,12.92
2022-10-19T11:48:54.894Z,12.86
2022-10-19T11:54:08.963Z,12.87
2022-10-19T11:59:20.685Z,12.75
2022-10-19T12:04:43.530Z,12.73
2022-10-19T12:09:52.010Z,12.82
2022-10-19T12:15:00.673Z,12.93
2022-10-19T12:20:06.623Z,12.92
2022-10-19T12:25:14.053Z,13.01
2022-10-19T12:30:19.681Z,13.02
2022-10-19T12:35:31.624Z,12.99
2022-10-19T12:40:39.656Z,13.00
2022-10-19T12:45:45.744Z,13.00
2022-10-19T12:51:05.971Z,13.00
2022-10-19T12:56:11.074Z,13.06
2022-10-19T13:01:19.399Z,13.05
2022-10-19T13:06:31.892Z,13.12
2022-10-19T13:17:01.180Z,13.11
2022-10-19T13:22:26.658Z,13.06
2022-10-19T13:27:38.540Z,13.02
2022-10-19T13:32:44.912Z,13.06
2022-10-19T13:37:47.667Z,13.10
2022-10-19T13:42:58.839Z,13.18
2022-10-19T13:48:09.910Z,13.10
2022-10-19T13:53:23.398Z,13.04
2022-10-19T13:58:39.628Z,13.03
2022-10-19T14:03:56.433Z,12.92
2022-10-19T14:09:22.782Z,12.91
2022-10-19T14:14:26.111Z,12.99
2022-10-19T14:19:41.853Z,12.96
2022-10-19T14:24:44.602Z,12.91
2022-10-19T14:29:49.292Z,12.83
2022-10-19T14:34:54.566Z,12.75
2022-10-19T14:40:06.613Z,12.65
2022-10-19T14:45:17.808Z,12.65
2022-10-19T14:50:24.508Z,12.61
2022-10-19T14:55:32.492Z,12.55
2022-10-19T15:00:35.369Z,12.50
2022-10-19T15:05:42.501Z,12.51
2022-10-19T15:10:46.630Z,12.50
2022-10-19T15:15:51.611Z,12.52
2022-10-19T15:21:12.469Z,12.52
2022-10-19T15:26:21.524Z,12.42
2022-10-19T15:31:26.451Z,12.36
2022-10-19T15:36:31.352Z,12.40
2022-10-19T15:41:35.818Z,12.37
2022-10-19T15:47:22.203Z,12.37
2022-10-19T15:52:27.535Z,12.34
2022-10-19T15:57:32.440Z,12.33
2022-10-19T16:02:35.531Z,12.29
2022-10-19T16:07:41.509Z,12.23
2022-10-19T16:12:44.235Z,12.14
2022-10-19T16:17:48.481Z,12.04
2022-10-19T16:22:52.714Z,11.99
2022-10-19T16:27:55.374Z,11.97
2022-10-19T16:32:58.100Z,11.97
2022-10-19T16:38:02.053Z,11.97
2022-10-19T16:43:04.814Z,11.95
2022-10-19T16:48:07.544Z,11.86
2022-10-19T16:53:12.197Z,11.77
2022-10-19T16:58:14.917Z,11.68
2022-10-19T17:03:17.573Z,11.67
2022-10-19T17:08:23.882Z,11.65
2022-10-19T17:13:29.057Z,11.53
2022-10-19T17:18:31.862Z,11.43
2022-10-19T17:23:36.219Z,11.31
2022-10-19T17:28:40.016Z,11.21
2022-10-19T17:33:42.788Z,11.03
2022-10-19T17:38:47.511Z,10.97
2022-10-19T17:43:52.608Z,10.83
2022-10-19T17:48:55.297Z,10.77
2022-10-19T17:54:00.903Z,10.67
2022-10-19T17:59:04.047Z,10.55
2022-10-19T18:04:06.943Z,10.54
2022-10-19T18:09:10.953Z,10.44
2022-10-19T18:14:13.991Z,10.37
2022-10-19T18:19:17.679Z,10.36
2022-10-19T18:24:21.668Z,10.25
2022-10-19T18:29:26.014Z,10.22
2022-10-19T18:34:28.909Z,10.17
2022-10-19T18:39:33.218Z,10.06
2022-10-19T18:44:35.886Z,10.07
2022-10-19T18:49:38.605Z,9.99
2022-10-19T18:54:42.541Z,9.88
2022-10-19T18:59:45.156Z,9.88
2022-10-19T19:04:47.850Z,9.85
2022-10-19T19:09:52.136Z,9.77
2022-10-19T19:14:54.756Z,9.75
2022-10-19T19:19:57.447Z,9.70
2022-10-19T19:25:01.554Z,9.64
2022-10-19T19:30:04.803Z,9.61
2022-10-19T19:35:07.987Z,9.59
2022-10-19T19:40:12.749Z,9.51
2022-10-19T19:45:15.805Z,9.40
2022-10-19T19:50:18.771Z,9.37
2022-10-19T19:55:22.800Z,9.33
2022-10-19T20:00:25.742Z,9.27
2022-10-19T20:05:29.103Z,9.24
2022-10-19T20:10:33.353Z,9.17
2022-10-19T20:15:38.639Z,9.03
2022-10-19T20:20:41.512Z,8.96
2022-10-19T20:25:45.400Z,8.94
2022-10-19T20:30:48.033Z,8.92
2022-10-19T20:35:50.649Z,8.91
2022-10-19T20:40:54.815Z,8.89
2022-10-19T20:46:03.187Z,8.88
2022-10-19T20:51:10.298Z,8.78
2022-10-19T20:56:15.682Z,8.78
2022-10-19T21:01:19.896Z,8.80
2022-10-19T21:06:24.186Z,8.76
2022-10-19T21:11:29.922Z,8.70
2022-10-19T21:16:33.880Z,8.71
2022-10-19T21:21:38.419Z,8.69
2022-10-19T21:26:42.681Z,8.66
2022-10-19T21:31:48.807Z,8.63
2022-10-19T21:36:52.660Z,8.50
2022-10-19T21:41:57.234Z,8.40
2022-10-19T21:47:00.175Z,8.43
2022-10-19T21:52:02.913Z,8.43
2022-10-19T21:57:06.817Z,8.41
2022-10-19T22:02:09.574Z,8.36
2022-10-19T22:07:12.407Z,8.35
2022-10-19T22:12:16.399Z,8.24
2022-10-19T22:17:19.183Z,8.18
2022-10-19T22:22:21.932Z,8.09
2022-10-19T22:27:26.147Z,8.09
2022-10-19T22:32:28.733Z,8.06
2022-10-19T22:37:31.464Z,8.04
2022-10-19T22:42:36.024Z,8.06
2022-10-19T22:47:38.876Z,7.98
2022-10-19T22:52:41.561Z,8.01
2022-10-19T22:57:45.512Z,8.00
2022-10-19T23:02:48.115Z,7.99
2022-10-19T23:07:50.760Z,7.94
2022-10-19T23:12:55.008Z,7.92
2022-10-19T23:17:58.964Z,7.95
2022-10-19T23:23:01.690Z,7.92
2022-10-19T23:28:06.015Z,7.77
2022-10-19T23:33:08.674Z,7.71
2022-10-19T23:38:11.323Z,7.72
2022-10-19T23:43:15.273Z,7.69
2022-10-19T23:48:18.074Z,7.68
2022-10-19T23:53:20.781Z,7.64
2022-10-19T23:58:24.779Z,7.66
